sensor_id;sensor_type;location;lat;lon;timestamp;P1;durP1;ratioP1;P2;durP2;ratioP2
49412;SDS011;35493;50.276;9.372;2022-08-01T00:00:32;2.97;;;1.60;;
49412;SDS011;35493;50.276;9.372;2022-08-01T00:02:59;3.20;;;1.70;;
49412;SDS011;35493;50.276;9.372;2022-08-01T00:05:26;4.30;;;1.30;;
49412;SDS011;35493;50.276;9.372;2022-08-01T00:07:55;3.63;;;1.75;;
49412;SDS011;35493;50.276;9.372;2022-08-01T00:10:22;4.10;;;1.75;;
49412;SDS011;35493;50.276;9.372;2022-08-01T00:12:50;3.63;;;1.60;;
49412;SDS011;35493;50.276;9.372;2022-08-01T00:15:17;5.05;;;1.65;;
49412;SDS011;35493;50.276;9.372;2022-08-01T00:17:44;2.28;;;1.42;;
49412;SDS011;35493;50.276;9.372;2022-08-01T00:20:12;4.78;;;1.52;;
49412;SDS011;35493;50.276;9.372;2022-08-01T00:22:40;2.92;;;1.73;;
49412;SDS011;35493;50.276;9.372;2022-08-01T00:25:07;4.00;;;1.80;;
49412;SDS011;35493;50.276;9.372;2022-08-01T00:27:34;3.83;;;1.65;;
49412;SDS011;35493;50.276;9.372;2022-08-01T00:30:03;3.05;;;1.52;;
49412;SDS011;35493;50.276;9.372;2022-08-01T00:32:31;2.45;;;1.50;;
49412;SDS011;35493;50.276;9.372;2022-08-01T00:34:58;2.70;;;1.63;;
49412;SDS011;35493;50.276;9.372;2022-08-01T00:37:25;1.98;;;0.95;;
49412;SDS011;35493;50.276;9.372;2022-08-01T00:39:52;3.70;;;1.35;;
49412;SDS011;35493;50.276;9.372;2022-08-01T00:42:20;2.50;;;1.52;;
49412;SDS011;35493;50.276;9.372;2022-08-01T00:44:47;6.25;;;2.00;;
49412;SDS011;35493;50.276;9.372;2022-08-01T00:47:16;2.78;;;1.52;;
49412;SDS011;35493;50.276;9.372;2022-08-01T00:49:43;4.55;;;1.38;;
49412;SDS011;35493;50.276;9.372;2022-08-01T00:52:11;2.58;;;1.70;;
49412;SDS011;35493;50.276;9.372;2022-08-01T00:54:39;2.72;;;1.55;;
49412;SDS011;35493;50.276;9.372;2022-08-01T00:57:07;4.75;;;1.73;;
49412;SDS011;35493;50.276;9.372;2022-08-01T00:59:34;4.13;;;1.52;;
49412;SDS011;35493;50.276;9.372;2022-08-01T01:02:02;6.20;;;1.90;;
49412;SDS011;35493;50.276;9.372;2022-08-01T01:04:30;3.03;;;1.50;;
49412;SDS011;35493;50.276;9.372;2022-08-01T01:06:58;3.42;;;1.80;;
49412;SDS011;35493;50.276;9.372;2022-08-01T01:09:34;3.40;;;1.40;;
49412;SDS011;35493;50.276;9.372;2022-08-01T01:12:12;2.75;;;1.50;;
49412;SDS011;35493;50.276;9.372;2022-08-01T01:14:44;3.17;;;1.42;;
49412;SDS011;35493;50.276;9.372;2022-08-01T01:17:17;2.38;;;1.42;;
49412;SDS011;35493;50.276;9.372;2022-08-01T01:19:51;3.25;;;1.50;;
49412;SDS011;35493;50.276;9.372;2022-08-01T01:22:24;2.22;;;1.40;;
49412;SDS011;35493;50.276;9.372;2022-08-01T01:25:04;2.13;;;1.40;;
49412;SDS011;35493;50.276;9.372;2022-08-01T01:27:47;2.25;;;1.35;;
49412;SDS011;35493;50.276;9.372;2022-08-01T01:30:25;2.50;;;1.48;;
49412;SDS011;35493;50.276;9.372;2022-08-01T01:32:56;2.22;;;1.33;;
49412;SDS011;35493;50.276;9.372;2022-08-01T01:35:28;3.58;;;1.20;;
49412;SDS011;35493;50.276;9.372;2022-08-01T01:38:01;2.97;;;1.60;;
49412;SDS011;35493;50.276;9.372;2022-08-01T01:40:36;4.43;;;1.55;;
49412;SDS011;35493;50.276;9.372;2022-08-01T01:43:05;4.82;;;1.63;;
49412;SDS011;35493;50.276;9.372;2022-08-01T01:45:37;4.90;;;1.75;;
49412;SDS011;35493;50.276;9.372;2022-08-01T01:48:06;3.58;;;1.70;;
49412;SDS011;35493;50.276;9.372;2022-08-01T01:50:35;3.20;;;1.65;;
49412;SDS011;35493;50.276;9.372;2022-08-01T01:53:03;3.38;;;1.55;;
49412;SDS011;35493;50.276;9.372;2022-08-01T01:55:32;5.00;;;1.50;;
49412;SDS011;35493;50.276;9.372;2022-08-01T01:58:01;4.97;;;1.77;;
49412;SDS011;35493;50.276;9.372;2022-08-01T02:00:29;3.42;;;1.52;;
49412;SDS011;35493;50.276;9.372;2022-08-01T02:03:00;3.13;;;1.40;;
49412;SDS011;35493;50.276;9.372;2022-08-01T02:05:29;2.45;;;1.50;;
49412;SDS011;35493;50.276;9.372;2022-08-01T02:07:59;3.17;;;1.67;;
49412;SDS011;35493;50.276;9.372;2022-08-01T02:10:28;2.92;;;1.40;;
49412;SDS011;35493;50.276;9.372;2022-08-01T02:12:57;5.78;;;1.63;;
49412;SDS011;35493;50.276;9.372;2022-08-01T02:15:27;2.33;;;1.40;;
49412;SDS011;35493;50.276;9.372;2022-08-01T02:17:56;3.00;;;1.30;;
49412;SDS011;35493;50.276;9.372;2022-08-01T02:20:25;2.40;;;1.45;;
49412;SDS011;35493;50.276;9.372;2022-08-01T02:22:55;4.07;;;1.70;;
49412;SDS011;35493;50.276;9.372;2022-08-01T02:25:29;3.75;;;1.83;;
49412;SDS011;35493;50.276;9.372;2022-08-01T02:28:01;2.78;;;1.40;;
49412;SDS011;35493;50.276;9.372;2022-08-01T02:30:33;7.15;;;2.00;;
49412;SDS011;35493;50.276;9.372;2022-08-01T02:33:02;2.83;;;1.40;;
49412;SDS011;35493;50.276;9.372;2022-08-01T02:35:35;2.35;;;1.40;;
49412;SDS011;35493;50.276;9.372;2022-08-01T02:38:08;2.38;;;1.33;;
49412;SDS011;35493;50.276;9.372;2022-08-01T02:40:37;2.58;;;1.27;;
49412;SDS011;35493;50.276;9.372;2022-08-01T02:43:08;2.70;;;1.40;;
49412;SDS011;35493;50.276;9.372;2022-08-01T02:45:37;2.42;;;1.35;;
49412;SDS011;35493;50.276;9.372;2022-08-01T02:48:09;2.85;;;1.02;;
49412;SDS011;35493;50.276;9.372;2022-08-01T02:50:41;3.80;;;1.42;;
49412;SDS011;35493;50.276;9.372;2022-08-01T02:53:10;2.63;;;1.08;;
49412;SDS011;35493;50.276;9.372;2022-08-01T02:55:39;2.15;;;1.15;;
49412;SDS011;35493;50.276;9.372;2022-08-01T02:58:07;2.17;;;1.10;;
49412;SDS011;35493;50.276;9.372;2022-08-01T03:00:36;2.13;;;1.15;;
49412;SDS011;35493;50.276;9.372;2022-08-01T03:03:05;1.97;;;0.97;;
49412;SDS011;35493;50.276;9.372;2022-08-01T03:05:34;3.78;;;1.38;;
49412;SDS011;35493;50.276;9.372;2022-08-01T03:08:06;2.80;;;1.40;;
49412;SDS011;35493;50.276;9.372;2022-08-01T03:10:36;3.70;;;1.73;;
49412;SDS011;35493;50.276;9.372;2022-08-01T03:13:04;2.78;;;1.52;;
49412;SDS011;35493;50.276;9.372;2022-08-01T03:15:36;2.38;;;1.15;;
49412;SDS011;35493;50.276;9.372;2022-08-01T03:18:06;3.55;;;1.30;;
49412;SDS011;35493;50.276;9.372;2022-08-01T03:20:35;2.08;;;1.30;;
49412;SDS011;35493;50.276;9.372;2022-08-01T03:23:03;2.78;;;1.40;;
49412;SDS011;35493;50.276;9.372;2022-08-01T03:25:34;3.92;;;1.48;;
49412;SDS011;35493;50.276;9.372;2022-08-01T03:28:04;3.03;;;1.20;;
49412;SDS011;35493;50.276;9.372;2022-08-01T03:30:33;5.43;;;1.42;;
49412;SDS011;35493;50.276;9.372;2022-08-01T03:33:03;4.10;;;1.75;;
49412;SDS011;35493;50.276;9.372;2022-08-01T03:35:32;4.15;;;1.80;;
49412;SDS011;35493;50.276;9.372;2022-08-01T03:38:03;5.00;;;1.80;;
49412;SDS011;35493;50.276;9.372;2022-08-01T03:40:34;2.50;;;1.60;;
49412;SDS011;35493;50.276;9.372;2022-08-01T03:43:05;2.30;;;1.48;;
49412;SDS011;35493;50.276;9.372;2022-08-01T03:45:38;3.17;;;1.50;;
49412;SDS011;35493;50.276;9.372;2022-08-01T03:48:09;3.10;;;1.55;;
49412;SDS011;35493;50.276;9.372;2022-08-01T03:50:39;4.57;;;1.60;;
49412;SDS011;35493;50.276;9.372;2022-08-01T03:53:09;4.45;;;1.58;;
49412;SDS011;35493;50.276;9.372;2022-08-01T03:55:39;3.60;;;1.92;;
49412;SDS011;35493;50.276;9.372;2022-08-01T03:58:09;4.05;;;1.90;;
49412;SDS011;35493;50.276;9.372;2022-08-01T04:00:37;4.60;;;1.85;;
49412;SDS011;35493;50.276;9.372;2022-08-01T04:03:05;4.20;;;2.00;;
49412;SDS011;35493;50.276;9.372;2022-08-01T04:05:34;4.90;;;1.88;;
49412;SDS011;35493;50.276;9.372;2022-08-01T04:08:01;6.13;;;1.63;;
49412;SDS011;35493;50.276;9.372;2022-08-01T04:10:28;2.53;;;1.60;;
49412;SDS011;35493;50.276;9.372;2022-08-01T04:12:57;4.57;;;1.50;;
49412;SDS011;35493;50.276;9.372;2022-08-01T04:15:25;3.33;;;1.65;;
49412;SDS011;35493;50.276;9.372;2022-08-01T04:17:52;2.47;;;1.33;;
49412;SDS011;35493;50.276;9.372;2022-08-01T04:20:19;1.90;;;1.17;;
49412;SDS011;35493;50.276;9.372;2022-08-01T04:22:47;3.53;;;1.67;;
49412;SDS011;35493;50.276;9.372;2022-08-01T04:25:15;2.78;;;1.30;;
49412;SDS011;35493;50.276;9.372;2022-08-01T04:27:47;4.30;;;1.40;;
49412;SDS011;35493;50.276;9.372;2022-08-01T04:32:48;2.63;;;1.20;;
49412;SDS011;35493;50.276;9.372;2022-08-01T04:35:17;2.67;;;1.20;;
49412;SDS011;35493;50.276;9.372;2022-08-01T04:37:46;2.17;;;1.20;;
49412;SDS011;35493;50.276;9.372;2022-08-01T04:40:16;2.72;;;1.20;;
49412;SDS011;35493;50.276;9.372;2022-08-01T04:42:47;2.38;;;1.35;;
49412;SDS011;35493;50.276;9.372;2022-08-01T04:45:15;2.95;;;1.52;;
49412;SDS011;35493;50.276;9.372;2022-08-01T04:47:44;4.03;;;1.40;;
49412;SDS011;35493;50.276;9.372;2022-08-01T04:50:13;3.42;;;1.40;;
49412;SDS011;35493;50.276;9.372;2022-08-01T04:52:41;4.97;;;1.30;;
49412;SDS011;35493;50.276;9.372;2022-08-01T04:55:08;3.72;;;1.40;;
49412;SDS011;35493;50.276;9.372;2022-08-01T04:57:36;4.15;;;1.40;;
49412;SDS011;35493;50.276;9.372;2022-08-01T05:00:05;5.88;;;1.30;;
49412;SDS011;35493;50.276;9.372;2022-08-01T05:02:34;3.97;;;1.37;;
49412;SDS011;35493;50.276;9.372;2022-08-01T05:05:02;3.15;;;1.35;;
49412;SDS011;35493;50.276;9.372;2022-08-01T05:07:31;3.25;;;1.52;;
49412;SDS011;35493;50.276;9.372;2022-08-01T05:09:58;4.25;;;1.88;;
49412;SDS011;35493;50.276;9.372;2022-08-01T05:12:26;5.43;;;1.38;;
49412;SDS011;35493;50.276;9.372;2022-08-01T05:14:54;3.03;;;1.50;;
49412;SDS011;35493;50.276;9.372;2022-08-01T05:17:21;2.63;;;1.52;;
49412;SDS011;35493;50.276;9.372;2022-08-01T05:19:48;2.92;;;1.35;;
49412;SDS011;35493;50.276;9.372;2022-08-01T05:22:16;2.35;;;1.20;;
49412;SDS011;35493;50.276;9.372;2022-08-01T05:24:44;3.00;;;1.30;;
49412;SDS011;35493;50.276;9.372;2022-08-01T05:27:12;3.70;;;1.48;;
49412;SDS011;35493;50.276;9.372;2022-08-01T05:29:39;3.42;;;1.50;;
49412;SDS011;35493;50.276;9.372;2022-08-01T05:32:07;3.60;;;1.40;;
49412;SDS011;35493;50.276;9.372;2022-08-01T05:34:34;3.08;;;1.20;;
49412;SDS011;35493;50.276;9.372;2022-08-01T05:37:01;6.47;;;1.50;;
49412;SDS011;35493;50.276;9.372;2022-08-01T05:39:30;2.00;;;1.30;;
49412;SDS011;35493;50.276;9.372;2022-08-01T05:41:57;1.63;;;0.95;;
49412;SDS011;35493;50.276;9.372;2022-08-01T05:44:24;3.28;;;1.27;;
49412;SDS011;35493;50.276;9.372;2022-08-01T05:46:51;9.40;;;1.30;;
49412;SDS011;35493;50.276;9.372;2022-08-01T05:49:18;2.78;;;1.35;;
49412;SDS011;35493;50.276;9.372;2022-08-01T05:51:46;4.20;;;0.93;;
49412;SDS011;35493;50.276;9.372;2022-08-01T05:54:13;4.18;;;1.30;;
49412;SDS011;35493;50.276;9.372;2022-08-01T05:56:41;3.08;;;1.40;;
49412;SDS011;35493;50.276;9.372;2022-08-01T05:59:08;4.18;;;1.13;;
49412;SDS011;35493;50.276;9.372;2022-08-01T06:01:36;4.25;;;1.40;;
49412;SDS011;35493;50.276;9.372;2022-08-01T06:04:03;3.25;;;1.25;;
49412;SDS011;35493;50.276;9.372;2022-08-01T06:06:30;2.53;;;1.30;;
49412;SDS011;35493;50.276;9.372;2022-08-01T06:08:57;2.95;;;1.33;;
49412;SDS011;35493;50.276;9.372;2022-08-01T06:11:24;2.75;;;1.50;;
49412;SDS011;35493;50.276;9.372;2022-08-01T06:13:53;4.65;;;1.10;;
49412;SDS011;35493;50.276;9.372;2022-08-01T06:16:19;2.88;;;1.50;;
49412;SDS011;35493;50.276;9.372;2022-08-01T06:18:46;3.50;;;1.30;;
49412;SDS011;35493;50.276;9.372;2022-08-01T06:21:13;2.72;;;1.08;;
49412;SDS011;35493;50.276;9.372;2022-08-01T06:23:41;3.35;;;1.60;;
49412;SDS011;35493;50.276;9.372;2022-08-01T06:26:08;2.45;;;1.23;;
49412;SDS011;35493;50.276;9.372;2022-08-01T06:28:36;3.08;;;1.42;;
49412;SDS011;35493;50.276;9.372;2022-08-01T06:31:05;2.17;;;1.17;;
49412;SDS011;35493;50.276;9.372;2022-08-01T06:33:32;3.88;;;1.42;;
49412;SDS011;35493;50.276;9.372;2022-08-01T06:35:59;2.65;;;1.60;;
49412;SDS011;35493;50.276;9.372;2022-08-01T06:38:26;3.28;;;1.77;;
49412;SDS011;35493;50.276;9.372;2022-08-01T06:40:53;2.80;;;1.20;;
49412;SDS011;35493;50.276;9.372;2022-08-01T06:43:20;3.78;;;1.75;;
49412;SDS011;35493;50.276;9.372;2022-08-01T06:45:47;2.50;;;1.38;;
49412;SDS011;35493;50.276;9.372;2022-08-01T06:48:16;2.05;;;1.25;;
49412;SDS011;35493;50.276;9.372;2022-08-01T06:50:43;3.67;;;1.40;;
49412;SDS011;35493;50.276;9.372;2022-08-01T06:53:10;5.80;;;1.63;;
49412;SDS011;35493;50.276;9.372;2022-08-01T06:55:38;2.92;;;1.40;;
49412;SDS011;35493;50.276;9.372;2022-08-01T06:58:05;2.72;;;1.30;;
49412;SDS011;35493;50.276;9.372;2022-08-01T07:00:32;2.70;;;1.23;;
49412;SDS011;35493;50.276;9.372;2022-08-01T07:02:59;1.98;;;1.23;;
49412;SDS011;35493;50.276;9.372;2022-08-01T07:05:29;2.63;;;1.50;;
49412;SDS011;35493;50.276;9.372;2022-08-01T07:07:56;2.45;;;1.38;;
49412;SDS011;35493;50.276;9.372;2022-08-01T07:10:24;3.65;;;1.63;;
49412;SDS011;35493;50.276;9.372;2022-08-01T07:12:51;2.88;;;1.50;;
49412;SDS011;35493;50.276;9.372;2022-08-01T07:15:18;3.45;;;1.65;;
49412;SDS011;35493;50.276;9.372;2022-08-01T07:17:51;4.63;;;1.35;;
49412;SDS011;35493;50.276;9.372;2022-08-01T07:20:19;3.90;;;1.48;;
49412;SDS011;35493;50.276;9.372;2022-08-01T07:22:47;4.07;;;1.50;;
49412;SDS011;35493;50.276;9.372;2022-08-01T07:25:14;4.70;;;1.60;;
49412;SDS011;35493;50.276;9.372;2022-08-01T07:27:41;3.15;;;1.63;;
49412;SDS011;35493;50.276;9.372;2022-08-01T07:30:10;3.22;;;1.55;;
49412;SDS011;35493;50.276;9.372;2022-08-01T07:32:37;2.58;;;1.70;;
49412;SDS011;35493;50.276;9.372;2022-08-01T07:35:04;2.85;;;1.45;;
49412;SDS011;35493;50.276;9.372;2022-08-01T07:37:32;3.58;;;1.48;;
49412;SDS011;35493;50.276;9.372;2022-08-01T07:40:01;5.75;;;1.52;;
49412;SDS011;35493;50.276;9.372;2022-08-01T07:42:29;2.00;;;1.08;;
49412;SDS011;35493;50.276;9.372;2022-08-01T07:44:56;2.22;;;1.30;;
49412;SDS011;35493;50.276;9.372;2022-08-01T07:47:23;7.75;;;1.60;;
49412;SDS011;35493;50.276;9.372;2022-08-01T07:49:51;3.72;;;1.42;;
49412;SDS011;35493;50.276;9.372;2022-08-01T07:52:18;2.97;;;1.55;;
49412;SDS011;35493;50.276;9.372;2022-08-01T07:54:46;3.78;;;1.40;;
49412;SDS011;35493;50.276;9.372;2022-08-01T07:57:14;3.25;;;1.60;;
49412;SDS011;35493;50.276;9.372;2022-08-01T07:59:41;2.42;;;1.27;;
49412;SDS011;35493;50.276;9.372;2022-08-01T08:02:08;3.47;;;1.70;;
49412;SDS011;35493;50.276;9.372;2022-08-01T08:04:35;4.72;;;2.03;;
49412;SDS011;35493;50.276;9.372;2022-08-01T08:07:02;4.20;;;2.13;;
49412;SDS011;35493;50.276;9.372;2022-08-01T08:09:29;2.97;;;1.52;;
49412;SDS011;35493;50.276;9.372;2022-08-01T08:11:56;4.30;;;1.45;;
49412;SDS011;35493;50.276;9.372;2022-08-01T08:14:24;3.03;;;1.60;;
49412;SDS011;35493;50.276;9.372;2022-08-01T08:16:52;2.45;;;1.42;;
49412;SDS011;35493;50.276;9.372;2022-08-01T08:19:19;3.88;;;1.83;;
49412;SDS011;35493;50.276;9.372;2022-08-01T08:21:46;3.75;;;1.40;;
49412;SDS011;35493;50.276;9.372;2022-08-01T08:24:13;5.47;;;1.67;;
49412;SDS011;35493;50.276;9.372;2022-08-01T08:26:46;2.65;;;1.40;;
49412;SDS011;35493;50.276;9.372;2022-08-01T08:29:13;2.85;;;1.48;;
49412;SDS011;35493;50.276;9.372;2022-08-01T08:31:42;2.78;;;1.50;;
49412;SDS011;35493;50.276;9.372;2022-08-01T08:34:09;3.43;;;1.80;;
49412;SDS011;35493;50.276;9.372;2022-08-01T08:36:36;2.25;;;1.30;;
49412;SDS011;35493;50.276;9.372;2022-08-01T08:39:04;2.20;;;1.42;;
49412;SDS011;35493;50.276;9.372;2022-08-01T08:41:31;3.58;;;1.50;;
49412;SDS011;35493;50.276;9.372;2022-08-01T08:43:59;3.58;;;1.70;;
49412;SDS011;35493;50.276;9.372;2022-08-01T08:46:27;3.78;;;1.50;;
49412;SDS011;35493;50.276;9.372;2022-08-01T08:48:55;3.70;;;1.63;;
49412;SDS011;35493;50.276;9.372;2022-08-01T08:51:23;1.87;;;1.30;;
49412;SDS011;35493;50.276;9.372;2022-08-01T08:53:53;2.10;;;1.40;;
49412;SDS011;35493;50.276;9.372;2022-08-01T08:56:23;1.65;;;1.10;;
49412;SDS011;35493;50.276;9.372;2022-08-01T08:58:51;2.20;;;1.13;;
49412;SDS011;35493;50.276;9.372;2022-08-01T09:01:18;2.80;;;1.30;;
49412;SDS011;35493;50.276;9.372;2022-08-01T09:03:45;2.83;;;1.40;;
49412;SDS011;35493;50.276;9.372;2022-08-01T09:06:15;1.77;;;1.00;;
49412;SDS011;35493;50.276;9.372;2022-08-01T09:08:42;2.70;;;1.50;;
49412;SDS011;35493;50.276;9.372;2022-08-01T09:11:09;3.22;;;1.30;;
49412;SDS011;35493;50.276;9.372;2022-08-01T09:13:37;2.00;;;1.30;;
49412;SDS011;35493;50.276;9.372;2022-08-01T09:16:04;2.40;;;1.38;;
49412;SDS011;35493;50.276;9.372;2022-08-01T09:18:32;3.72;;;1.90;;
49412;SDS011;35493;50.276;9.372;2022-08-01T09:21:08;1.92;;;1.05;;
49412;SDS011;35493;50.276;9.372;2022-08-01T09:23:38;3.20;;;1.52;;
49412;SDS011;35493;50.276;9.372;2022-08-01T09:26:07;4.15;;;1.85;;
49412;SDS011;35493;50.276;9.372;2022-08-01T09:28:35;3.75;;;1.80;;
49412;SDS011;35493;50.276;9.372;2022-08-01T09:31:06;6.03;;;1.63;;
49412;SDS011;35493;50.276;9.372;2022-08-01T09:33:47;2.63;;;1.25;;
49412;SDS011;35493;50.276;9.372;2022-08-01T09:36:18;2.78;;;1.33;;
49412;SDS011;35493;50.276;9.372;2022-08-01T09:38:48;3.58;;;1.70;;
49412;SDS011;35493;50.276;9.372;2022-08-01T09:41:17;4.57;;;1.48;;
49412;SDS011;35493;50.276;9.372;2022-08-01T09:43:54;4.85;;;1.90;;
49412;SDS011;35493;50.276;9.372;2022-08-01T09:46:21;4.05;;;1.65;;
49412;SDS011;35493;50.276;9.372;2022-08-01T09:48:59;4.95;;;2.25;;
49412;SDS011;35493;50.276;9.372;2022-08-01T09:51:28;5.20;;;2.40;;
49412;SDS011;35493;50.276;9.372;2022-08-01T09:54:01;5.95;;;3.03;;
49412;SDS011;35493;50.276;9.372;2022-08-01T09:56:35;5.55;;;2.90;;
49412;SDS011;35493;50.276;9.372;2022-08-01T09:59:03;5.88;;;2.88;;
49412;SDS011;35493;50.276;9.372;2022-08-01T10:01:41;5.47;;;2.90;;
49412;SDS011;35493;50.276;9.372;2022-08-01T10:04:10;5.40;;;2.70;;
49412;SDS011;35493;50.276;9.372;2022-08-01T10:06:39;5.32;;;2.47;;
49412;SDS011;35493;50.276;9.372;2022-08-01T10:11:36;5.05;;;1.92;;
49412;SDS011;35493;50.276;9.372;2022-08-01T10:14:04;3.47;;;1.83;;
49412;SDS011;35493;50.276;9.372;2022-08-01T10:16:34;1.98;;;1.33;;
49412;SDS011;35493;50.276;9.372;2022-08-01T10:19:02;3.33;;;1.75;;
49412;SDS011;35493;50.276;9.372;2022-08-01T10:21:32;2.15;;;1.10;;
49412;SDS011;35493;50.276;9.372;2022-08-01T10:24:00;3.10;;;1.73;;
49412;SDS011;35493;50.276;9.372;2022-08-01T10:26:32;4.28;;;1.77;;
49412;SDS011;35493;50.276;9.372;2022-08-01T10:28:59;4.53;;;1.67;;
49412;SDS011;35493;50.276;9.372;2022-08-01T10:31:27;4.85;;;1.45;;
49412;SDS011;35493;50.276;9.372;2022-08-01T10:33:58;4.57;;;1.80;;
49412;SDS011;35493;50.276;9.372;2022-08-01T10:36:26;5.72;;;2.17;;
49412;SDS011;35493;50.276;9.372;2022-08-01T10:38:54;4.25;;;2.15;;
49412;SDS011;35493;50.276;9.372;2022-08-01T10:41:22;6.03;;;2.60;;
49412;SDS011;35493;50.276;9.372;2022-08-01T10:43:52;7.32;;;2.15;;
49412;SDS011;35493;50.276;9.372;2022-08-01T10:46:19;3.13;;;1.50;;
49412;SDS011;35493;50.276;9.372;2022-08-01T10:48:49;3.40;;;1.50;;
49412;SDS011;35493;50.276;9.372;2022-08-01T10:51:20;3.83;;;1.30;;
49412;SDS011;35493;50.276;9.372;2022-08-01T10:53:50;1.73;;;1.00;;
49412;SDS011;35493;50.276;9.372;2022-08-01T10:56:17;1.58;;;0.90;;
49412;SDS011;35493;50.276;9.372;2022-08-01T10:58:46;2.35;;;1.20;;
49412;SDS011;35493;50.276;9.372;2022-08-01T11:01:16;2.33;;;1.40;;
49412;SDS011;35493;50.276;9.372;2022-08-01T11:03:57;1.65;;;1.13;;
49412;SDS011;35493;50.276;9.372;2022-08-01T11:06:35;2.38;;;1.20;;
49412;SDS011;35493;50.276;9.372;2022-08-01T11:12:07;2.20;;;1.20;;
49412;SDS011;35493;50.276;9.372;2022-08-01T11:17:38;2.17;;;1.15;;
49412;SDS011;35493;50.276;9.372;2022-08-01T11:20:09;2.95;;;1.40;;
49412;SDS011;35493;50.276;9.372;2022-08-01T11:31:39;3.67;;;1.92;;
49412;SDS011;35493;50.276;9.372;2022-08-01T11:34:08;2.60;;;1.63;;
49412;SDS011;35493;50.276;9.372;2022-08-01T11:36:35;3.35;;;1.80;;
49412;SDS011;35493;50.276;9.372;2022-08-01T11:39:12;3.15;;;1.40;;
49412;SDS011;35493;50.276;9.372;2022-08-01T11:41:41;4.78;;;1.80;;
49412;SDS011;35493;50.276;9.372;2022-08-01T11:44:10;3.58;;;1.77;;
49412;SDS011;35493;50.276;9.372;2022-08-01T11:52:23;5.78;;;2.47;;
49412;SDS011;35493;50.276;9.372;2022-08-01T11:54:53;4.18;;;2.08;;
49412;SDS011;35493;50.276;9.372;2022-08-01T11:57:23;3.45;;;1.70;;
49412;SDS011;35493;50.276;9.372;2022-08-01T11:59:52;4.10;;;1.85;;
49412;SDS011;35493;50.276;9.372;2022-08-01T12:02:22;3.25;;;1.50;;
49412;SDS011;35493;50.276;9.372;2022-08-01T12:04:52;3.13;;;1.85;;
49412;SDS011;35493;50.276;9.372;2022-08-01T12:07:21;3.38;;;1.80;;
49412;SDS011;35493;50.276;9.372;2022-08-01T12:09:55;3.25;;;1.38;;
49412;SDS011;35493;50.276;9.372;2022-08-01T12:12:24;2.53;;;1.48;;
49412;SDS011;35493;50.276;9.372;2022-08-01T12:14:54;3.40;;;1.50;;
49412;SDS011;35493;50.276;9.372;2022-08-01T12:17:34;3.35;;;1.75;;
49412;SDS011;35493;50.276;9.372;2022-08-01T12:20:05;3.88;;;1.60;;
49412;SDS011;35493;50.276;9.372;2022-08-01T12:22:36;2.75;;;1.10;;
49412;SDS011;35493;50.276;9.372;2022-08-01T12:25:04;3.58;;;1.60;;
49412;SDS011;35493;50.276;9.372;2022-08-01T12:27:32;2.92;;;1.70;;
49412;SDS011;35493;50.276;9.372;2022-08-01T12:30:00;2.65;;;1.60;;
49412;SDS011;35493;50.276;9.372;2022-08-01T12:32:27;3.40;;;1.80;;
49412;SDS011;35493;50.276;9.372;2022-08-01T12:34:56;3.95;;;2.00;;
49412;SDS011;35493;50.276;9.372;2022-08-01T12:37:28;2.40;;;1.63;;
49412;SDS011;35493;50.276;9.372;2022-08-01T12:39:55;3.17;;;1.80;;
49412;SDS011;35493;50.276;9.372;2022-08-01T12:42:23;5.20;;;2.67;;
49412;SDS011;35493;50.276;9.372;2022-08-01T12:44:51;5.15;;;2.22;;
49412;SDS011;35493;50.276;9.372;2022-08-01T12:47:19;4.85;;;2.47;;
49412;SDS011;35493;50.276;9.372;2022-08-01T12:49:48;3.08;;;1.77;;
49412;SDS011;35493;50.276;9.372;2022-08-01T12:52:15;3.75;;;1.95;;
49412;SDS011;35493;50.276;9.372;2022-08-01T12:55:00;5.97;;;2.00;;
49412;SDS011;35493;50.276;9.372;2022-08-01T12:57:33;3.45;;;2.03;;
49412;SDS011;35493;50.276;9.372;2022-08-01T13:00:14;3.25;;;1.90;;
49412;SDS011;35493;50.276;9.372;2022-08-01T13:02:43;4.53;;;2.30;;
49412;SDS011;35493;50.276;9.372;2022-08-01T13:05:12;4.97;;;2.60;;
49412;SDS011;35493;50.276;9.372;2022-08-01T13:07:40;4.95;;;2.20;;
49412;SDS011;35493;50.276;9.372;2022-08-01T13:10:11;3.20;;;1.55;;
49412;SDS011;35493;50.276;9.372;2022-08-01T13:12:39;3.17;;;1.90;;
49412;SDS011;35493;50.276;9.372;2022-08-01T13:15:16;3.60;;;2.13;;
49412;SDS011;35493;50.276;9.372;2022-08-01T13:17:50;3.42;;;2.00;;
49412;SDS011;35493;50.276;9.372;2022-08-01T13:20:24;3.80;;;1.92;;
49412;SDS011;35493;50.276;9.372;2022-08-01T13:23:09;5.23;;;2.53;;
49412;SDS011;35493;50.276;9.372;2022-08-01T13:25:47;5.88;;;2.80;;
49412;SDS011;35493;50.276;9.372;2022-08-01T13:28:16;4.35;;;2.30;;
49412;SDS011;35493;50.276;9.372;2022-08-01T13:30:52;4.70;;;2.33;;
49412;SDS011;35493;50.276;9.372;2022-08-01T13:33:25;3.25;;;1.98;;
49412;SDS011;35493;50.276;9.372;2022-08-01T13:35:54;4.35;;;1.90;;
49412;SDS011;35493;50.276;9.372;2022-08-01T13:38:22;5.15;;;2.45;;
49412;SDS011;35493;50.276;9.372;2022-08-01T13:41:04;3.15;;;1.98;;
49412;SDS011;35493;50.276;9.372;2022-08-01T13:43:31;4.03;;;2.47;;
49412;SDS011;35493;50.276;9.372;2022-08-01T13:46:00;3.58;;;2.03;;
49412;SDS011;35493;50.276;9.372;2022-08-01T13:48:29;4.57;;;2.00;;
49412;SDS011;35493;50.276;9.372;2022-08-01T13:50:58;3.78;;;2.00;;
49412;SDS011;35493;50.276;9.372;2022-08-01T13:53:25;3.80;;;2.00;;
49412;SDS011;35493;50.276;9.372;2022-08-01T13:55:53;3.00;;;1.90;;
49412;SDS011;35493;50.276;9.372;2022-08-01T13:58:22;3.65;;;1.80;;
49412;SDS011;35493;50.276;9.372;2022-08-01T14:00:49;3.90;;;1.90;;
49412;SDS011;35493;50.276;9.372;2022-08-01T14:03:16;4.60;;;2.10;;
49412;SDS011;35493;50.276;9.372;2022-08-01T14:05:43;6.15;;;2.97;;
49412;SDS011;35493;50.276;9.372;2022-08-01T14:08:10;5.38;;;2.92;;
49412;SDS011;35493;50.276;9.372;2022-08-01T14:10:38;6.97;;;3.30;;
49412;SDS011;35493;50.276;9.372;2022-08-01T14:13:05;4.35;;;3.00;;
49412;SDS011;35493;50.276;9.372;2022-08-01T14:15:34;5.47;;;2.67;;
49412;SDS011;35493;50.276;9.372;2022-08-01T14:18:01;5.00;;;2.70;;
49412;SDS011;35493;50.276;9.372;2022-08-01T14:20:28;4.88;;;2.90;;
49412;SDS011;35493;50.276;9.372;2022-08-01T14:22:55;4.00;;;2.42;;
49412;SDS011;35493;50.276;9.372;2022-08-01T14:25:22;5.22;;;2.30;;
49412;SDS011;35493;50.276;9.372;2022-08-01T14:27:50;5.53;;;2.45;;
49412;SDS011;35493;50.276;9.372;2022-08-01T14:30:17;5.22;;;2.20;;
49412;SDS011;35493;50.276;9.372;2022-08-01T14:32:45;4.22;;;2.60;;
49412;SDS011;35493;50.276;9.372;2022-08-01T14:35:12;3.63;;;2.50;;
49412;SDS011;35493;50.276;9.372;2022-08-01T14:37:39;3.30;;;2.00;;
49412;SDS011;35493;50.276;9.372;2022-08-01T14:40:07;4.78;;;2.15;;
49412;SDS011;35493;50.276;9.372;2022-08-01T14:42:35;3.58;;;2.42;;
49412;SDS011;35493;50.276;9.372;2022-08-01T14:45:03;5.50;;;2.80;;
49412;SDS011;35493;50.276;9.372;2022-08-01T14:47:34;4.72;;;2.70;;
49412;SDS011;35493;50.276;9.372;2022-08-01T14:50:04;4.32;;;2.50;;
49412;SDS011;35493;50.276;9.372;2022-08-01T14:52:32;5.68;;;2.65;;
49412;SDS011;35493;50.276;9.372;2022-08-01T14:55:00;5.05;;;2.50;;
49412;SDS011;35493;50.276;9.372;2022-08-01T14:57:27;5.07;;;2.40;;
49412;SDS011;35493;50.276;9.372;2022-08-01T14:59:54;3.83;;;2.15;;
49412;SDS011;35493;50.276;9.372;2022-08-01T15:02:22;5.15;;;2.67;;
49412;SDS011;35493;50.276;9.372;2022-08-01T15:04:49;4.57;;;2.67;;
49412;SDS011;35493;50.276;9.372;2022-08-01T15:07:18;5.40;;;2.80;;
49412;SDS011;35493;50.276;9.372;2022-08-01T15:09:45;4.22;;;2.47;;
49412;SDS011;35493;50.276;9.372;2022-08-01T15:12:12;6.60;;;2.60;;
49412;SDS011;35493;50.276;9.372;2022-08-01T15:14:39;3.75;;;1.95;;
49412;SDS011;35493;50.276;9.372;2022-08-01T15:17:16;4.03;;;2.25;;
49412;SDS011;35493;50.276;9.372;2022-08-01T15:19:45;3.92;;;2.33;;
49412;SDS011;35493;50.276;9.372;2022-08-01T15:22:12;6.63;;;1.98;;
49412;SDS011;35493;50.276;9.372;2022-08-01T15:24:42;4.30;;;2.20;;